Terminal Aerodrome Forecast
Issued by NWS

Home | Current Version | Previous Version | Text Only | Print | Product List | Glossary On
Versions: 1 2 3 4 5 6 7 8 9 10 11 12 13 14 15 16 17
194
FTUS42 KKEY 231722
TAFMTH
TAF
KMTH 231722Z 2318/2418 16008G14KT P6SM FEW020 SCT200
     FM232000 17007KT P6SM FEW022 SCT035 SCT200
     FM240600 21013G18KT P6SM SCT020 SCT100 BKN200=

USA.gov is the U.S. government's official web portal to all federal, state and local government web resources and services.